sensor_id;sensor_type;location;lat;lon;timestamp;P1;durP1;ratioP1;P2;durP2;ratioP2
15317;SDS011;7759;52.528;13.346;2023-02-11T00:01:47;23.60;;;11.03;;
15317;SDS011;7759;52.528;13.346;2023-02-11T00:04:13;30.50;;;14.43;;
15317;SDS011;7759;52.528;13.346;2023-02-11T00:06:39;29.70;;;12.67;;
15317;SDS011;7759;52.528;13.346;2023-02-11T00:09:05;33.13;;;13.23;;
15317;SDS011;7759;52.528;13.346;2023-02-11T00:11:31;31.30;;;14.13;;
15317;SDS011;7759;52.528;13.346;2023-02-11T00:14:01;20.93;;;10.37;;
15317;SDS011;7759;52.528;13.346;2023-02-11T00:16:28;24.60;;;10.37;;
15317;SDS011;7759;52.528;13.346;2023-02-11T00:18:55;25.37;;;12.03;;
15317;SDS011;7759;52.528;13.346;2023-02-11T00:21:24;15.10;;;8.63;;
15317;SDS011;7759;52.528;13.346;2023-02-11T00:23:50;23.10;;;11.37;;
15317;SDS011;7759;52.528;13.346;2023-02-11T00:28:43;20.83;;;10.27;;
15317;SDS011;7759;52.528;13.346;2023-02-11T00:31:09;26.30;;;12.37;;
15317;SDS011;7759;52.528;13.346;2023-02-11T00:33:35;15.33;;;7.83;;
15317;SDS011;7759;52.528;13.346;2023-02-11T00:36:05;20.27;;;7.63;;
15317;SDS011;7759;52.528;13.346;2023-02-11T00:38:31;27.17;;;12.30;;
15317;SDS011;7759;52.528;13.346;2023-02-11T00:40:57;21.50;;;11.23;;
15317;SDS011;7759;52.528;13.346;2023-02-11T00:43:23;18.43;;;8.77;;
15317;SDS011;7759;52.528;13.346;2023-02-11T00:45:49;24.57;;;11.83;;
15317;SDS011;7759;52.528;13.346;2023-02-11T00:48:14;19.37;;;9.27;;
15317;SDS011;7759;52.528;13.346;2023-02-11T00:50:40;21.77;;;9.67;;
15317;SDS011;7759;52.528;13.346;2023-02-11T00:53:06;13.63;;;6.83;;
15317;SDS011;7759;52.528;13.346;2023-02-11T00:55:33;11.13;;;6.00;;
15317;SDS011;7759;52.528;13.346;2023-02-11T00:57:59;27.07;;;12.13;;
15317;SDS011;7759;52.528;13.346;2023-02-11T01:00:25;14.60;;;7.03;;
15317;SDS011;7759;52.528;13.346;2023-02-11T01:02:51;14.57;;;7.60;;
15317;SDS011;7759;52.528;13.346;2023-02-11T01:05:18;16.63;;;8.00;;
15317;SDS011;7759;52.528;13.346;2023-02-11T01:07:44;13.83;;;6.83;;
15317;SDS011;7759;52.528;13.346;2023-02-11T01:10:10;20.93;;;10.33;;
15317;SDS011;7759;52.528;13.346;2023-02-11T01:12:37;14.57;;;7.23;;
15317;SDS011;7759;52.528;13.346;2023-02-11T01:15:03;26.43;;;11.60;;
15317;SDS011;7759;52.528;13.346;2023-02-11T01:17:29;26.43;;;13.27;;
15317;SDS011;7759;52.528;13.346;2023-02-11T01:19:55;25.37;;;11.67;;
15317;SDS011;7759;52.528;13.346;2023-02-11T01:22:21;29.27;;;13.13;;
15317;SDS011;7759;52.528;13.346;2023-02-11T01:24:47;24.77;;;12.80;;
15317;SDS011;7759;52.528;13.346;2023-02-11T01:27:13;30.10;;;13.10;;
15317;SDS011;7759;52.528;13.346;2023-02-11T01:29:39;27.10;;;13.30;;
15317;SDS011;7759;52.528;13.346;2023-02-11T01:32:05;23.53;;;11.77;;
15317;SDS011;7759;52.528;13.346;2023-02-11T01:34:30;17.40;;;8.40;;
15317;SDS011;7759;52.528;13.346;2023-02-11T01:36:57;20.13;;;9.53;;
15317;SDS011;7759;52.528;13.346;2023-02-11T01:39:23;22.83;;;10.43;;
15317;SDS011;7759;52.528;13.346;2023-02-11T01:41:49;32.43;;;13.10;;
15317;SDS011;7759;52.528;13.346;2023-02-11T01:44:27;18.27;;;9.13;;
15317;SDS011;7759;52.528;13.346;2023-02-11T01:46:54;26.83;;;12.70;;
15317;SDS011;7759;52.528;13.346;2023-02-11T01:49:22;21.30;;;9.20;;
15317;SDS011;7759;52.528;13.346;2023-02-11T01:51:55;29.63;;;13.30;;
15317;SDS011;7759;52.528;13.346;2023-02-11T01:54:23;20.50;;;9.30;;
15317;SDS011;7759;52.528;13.346;2023-02-11T01:57:09;26.73;;;11.37;;
15317;SDS011;7759;52.528;13.346;2023-02-11T02:00:05;22.10;;;11.10;;
15317;SDS011;7759;52.528;13.346;2023-02-11T02:02:33;15.77;;;8.10;;
15317;SDS011;7759;52.528;13.346;2023-02-11T02:05:01;22.73;;;11.47;;
15317;SDS011;7759;52.528;13.346;2023-02-11T02:07:38;20.50;;;9.97;;
15317;SDS011;7759;52.528;13.346;2023-02-11T02:10:08;21.43;;;10.80;;
15317;SDS011;7759;52.528;13.346;2023-02-11T02:12:36;23.60;;;11.77;;
15317;SDS011;7759;52.528;13.346;2023-02-11T02:15:21;31.93;;;14.60;;
15317;SDS011;7759;52.528;13.346;2023-02-11T02:17:58;22.43;;;10.57;;
15317;SDS011;7759;52.528;13.346;2023-02-11T02:29:00;13.37;;;7.07;;
15317;SDS011;7759;52.528;13.346;2023-02-11T02:34:05;23.27;;;10.60;;
15317;SDS011;7759;52.528;13.346;2023-02-11T02:36:48;18.00;;;9.77;;
15317;SDS011;7759;52.528;13.346;2023-02-11T02:39:28;26.53;;;12.43;;
15317;SDS011;7759;52.528;13.346;2023-02-11T02:41:55;26.10;;;13.00;;
15317;SDS011;7759;52.528;13.346;2023-02-11T02:44:21;23.73;;;11.03;;
15317;SDS011;7759;52.528;13.346;2023-02-11T02:46:47;23.77;;;11.57;;
15317;SDS011;7759;52.528;13.346;2023-02-11T02:49:14;27.00;;;11.87;;
15317;SDS011;7759;52.528;13.346;2023-02-11T02:54:20;25.63;;;11.87;;
15317;SDS011;7759;52.528;13.346;2023-02-11T02:59:39;23.43;;;10.70;;
15317;SDS011;7759;52.528;13.346;2023-02-11T03:02:17;20.20;;;10.20;;
15317;SDS011;7759;52.528;13.346;2023-02-11T03:05:01;27.47;;;13.80;;
15317;SDS011;7759;52.528;13.346;2023-02-11T03:12:39;13.73;;;7.47;;
15317;SDS011;7759;52.528;13.346;2023-02-11T03:15:06;22.17;;;11.93;;
15317;SDS011;7759;52.528;13.346;2023-02-11T03:17:33;20.40;;;11.50;;
15317;SDS011;7759;52.528;13.346;2023-02-11T03:20:00;23.70;;;12.93;;
15317;SDS011;7759;52.528;13.346;2023-02-11T03:22:45;11.90;;;6.83;;
15317;SDS011;7759;52.528;13.346;2023-02-11T03:25:12;27.13;;;13.37;;
15317;SDS011;7759;52.528;13.346;2023-02-11T03:27:40;24.37;;;11.80;;
15317;SDS011;7759;52.528;13.346;2023-02-11T03:30:21;16.40;;;8.30;;
15317;SDS011;7759;52.528;13.346;2023-02-11T03:33:36;23.90;;;12.97;;
15317;SDS011;7759;52.528;13.346;2023-02-11T03:35:44;21.23;;;11.43;;
15317;SDS011;7759;52.528;13.346;2023-02-11T03:38:17;32.03;;;14.83;;
15317;SDS011;7759;52.528;13.346;2023-02-11T03:40:44;20.93;;;10.37;;
15317;SDS011;7759;52.528;13.346;2023-02-11T03:43:12;29.57;;;13.90;;
15317;SDS011;7759;52.528;13.346;2023-02-11T03:45:41;19.63;;;10.40;;
15317;SDS011;7759;52.528;13.346;2023-02-11T03:48:10;35.47;;;14.60;;
15317;SDS011;7759;52.528;13.346;2023-02-11T03:50:37;14.97;;;7.93;;
15317;SDS011;7759;52.528;13.346;2023-02-11T03:53:03;24.97;;;13.23;;
15317;SDS011;7759;52.528;13.346;2023-02-11T03:55:32;29.97;;;14.70;;
15317;SDS011;7759;52.528;13.346;2023-02-11T03:57:59;25.70;;;12.83;;
15317;SDS011;7759;52.528;13.346;2023-02-11T04:00:33;23.27;;;10.37;;
15317;SDS011;7759;52.528;13.346;2023-02-11T04:02:59;20.40;;;11.60;;
15317;SDS011;7759;52.528;13.346;2023-02-11T04:05:25;16.07;;;8.73;;
15317;SDS011;7759;52.528;13.346;2023-02-11T04:07:51;28.00;;;13.63;;
15317;SDS011;7759;52.528;13.346;2023-02-11T04:10:17;25.23;;;13.23;;
15317;SDS011;7759;52.528;13.346;2023-02-11T04:12:42;34.93;;;14.80;;
15317;SDS011;7759;52.528;13.346;2023-02-11T04:15:08;25.13;;;12.67;;
15317;SDS011;7759;52.528;13.346;2023-02-11T04:17:34;31.97;;;15.53;;
15317;SDS011;7759;52.528;13.346;2023-02-11T04:20:00;28.53;;;13.60;;
15317;SDS011;7759;52.528;13.346;2023-02-11T04:22:26;14.67;;;8.47;;
15317;SDS011;7759;52.528;13.346;2023-02-11T04:24:52;28.70;;;13.00;;
15317;SDS011;7759;52.528;13.346;2023-02-11T04:27:18;23.50;;;11.87;;
15317;SDS011;7759;52.528;13.346;2023-02-11T04:29:44;28.70;;;11.70;;
15317;SDS011;7759;52.528;13.346;2023-02-11T04:32:10;23.10;;;10.97;;
15317;SDS011;7759;52.528;13.346;2023-02-11T04:34:36;18.53;;;10.03;;
15317;SDS011;7759;52.528;13.346;2023-02-11T04:37:02;23.57;;;12.13;;
15317;SDS011;7759;52.528;13.346;2023-02-11T04:39:28;15.80;;;7.63;;
15317;SDS011;7759;52.528;13.346;2023-02-11T04:41:54;22.87;;;10.70;;
15317;SDS011;7759;52.528;13.346;2023-02-11T04:44:20;25.13;;;12.07;;
15317;SDS011;7759;52.528;13.346;2023-02-11T04:46:46;21.60;;;10.90;;
15317;SDS011;7759;52.528;13.346;2023-02-11T04:49:12;24.07;;;11.73;;
15317;SDS011;7759;52.528;13.346;2023-02-11T04:51:39;12.70;;;6.50;;
15317;SDS011;7759;52.528;13.346;2023-02-11T04:54:04;23.90;;;12.90;;
15317;SDS011;7759;52.528;13.346;2023-02-11T04:56:30;15.77;;;7.00;;
15317;SDS011;7759;52.528;13.346;2023-02-11T04:58:56;26.47;;;12.77;;
15317;SDS011;7759;52.528;13.346;2023-02-11T05:01:22;19.70;;;10.13;;
15317;SDS011;7759;52.528;13.346;2023-02-11T05:03:48;30.67;;;14.43;;
15317;SDS011;7759;52.528;13.346;2023-02-11T05:06:14;30.83;;;14.77;;
15317;SDS011;7759;52.528;13.346;2023-02-11T05:08:41;33.37;;;17.50;;
15317;SDS011;7759;52.528;13.346;2023-02-11T05:11:07;26.90;;;13.07;;
15317;SDS011;7759;52.528;13.346;2023-02-11T05:13:33;15.47;;;7.70;;
15317;SDS011;7759;52.528;13.346;2023-02-11T05:15:59;15.13;;;7.37;;
15317;SDS011;7759;52.528;13.346;2023-02-11T05:18:25;31.70;;;13.87;;
15317;SDS011;7759;52.528;13.346;2023-02-11T05:20:51;24.83;;;13.10;;
15317;SDS011;7759;52.528;13.346;2023-02-11T05:23:17;31.03;;;14.67;;
15317;SDS011;7759;52.528;13.346;2023-02-11T05:25:43;29.10;;;14.93;;
15317;SDS011;7759;52.528;13.346;2023-02-11T05:28:09;35.90;;;16.53;;
15317;SDS011;7759;52.528;13.346;2023-02-11T05:30:34;22.87;;;11.13;;
15317;SDS011;7759;52.528;13.346;2023-02-11T05:33:00;19.43;;;10.30;;
15317;SDS011;7759;52.528;13.346;2023-02-11T05:35:26;25.97;;;13.73;;
15317;SDS011;7759;52.528;13.346;2023-02-11T05:37:52;29.67;;;15.13;;
15317;SDS011;7759;52.528;13.346;2023-02-11T05:40:18;23.03;;;10.93;;
15317;SDS011;7759;52.528;13.346;2023-02-11T05:42:44;35.07;;;15.57;;
15317;SDS011;7759;52.528;13.346;2023-02-11T05:45:10;21.50;;;11.53;;
15317;SDS011;7759;52.528;13.346;2023-02-11T05:47:36;32.70;;;15.77;;
15317;SDS011;7759;52.528;13.346;2023-02-11T05:50:02;25.33;;;12.07;;
15317;SDS011;7759;52.528;13.346;2023-02-11T05:52:28;22.53;;;11.77;;
15317;SDS011;7759;52.528;13.346;2023-02-11T05:54:53;13.77;;;7.70;;
15317;SDS011;7759;52.528;13.346;2023-02-11T05:57:19;22.70;;;12.23;;
15317;SDS011;7759;52.528;13.346;2023-02-11T05:59:45;35.63;;;17.17;;
15317;SDS011;7759;52.528;13.346;2023-02-11T06:02:11;28.93;;;15.33;;
15317;SDS011;7759;52.528;13.346;2023-02-11T06:04:37;27.73;;;13.57;;
15317;SDS011;7759;52.528;13.346;2023-02-11T06:07:03;33.33;;;17.00;;
15317;SDS011;7759;52.528;13.346;2023-02-11T06:09:29;32.93;;;14.87;;
15317;SDS011;7759;52.528;13.346;2023-02-11T06:11:55;25.43;;;12.77;;
15317;SDS011;7759;52.528;13.346;2023-02-11T06:14:21;37.30;;;17.50;;
15317;SDS011;7759;52.528;13.346;2023-02-11T06:16:47;25.80;;;12.80;;
15317;SDS011;7759;52.528;13.346;2023-02-11T06:19:13;20.27;;;9.17;;
15317;SDS011;7759;52.528;13.346;2023-02-11T06:21:39;37.80;;;16.73;;
15317;SDS011;7759;52.528;13.346;2023-02-11T06:24:05;22.23;;;11.67;;
15317;SDS011;7759;52.528;13.346;2023-02-11T06:26:32;29.80;;;13.93;;
15317;SDS011;7759;52.528;13.346;2023-02-11T06:29:00;29.67;;;14.73;;
15317;SDS011;7759;52.528;13.346;2023-02-11T06:31:26;31.70;;;15.97;;
15317;SDS011;7759;52.528;13.346;2023-02-11T06:33:53;30.90;;;13.83;;
15317;SDS011;7759;52.528;13.346;2023-02-11T06:36:19;17.93;;;8.83;;
15317;SDS011;7759;52.528;13.346;2023-02-11T06:38:46;31.40;;;15.27;;
15317;SDS011;7759;52.528;13.346;2023-02-11T06:41:13;25.03;;;12.30;;
15317;SDS011;7759;52.528;13.346;2023-02-11T06:43:39;14.30;;;7.90;;
15317;SDS011;7759;52.528;13.346;2023-02-11T06:46:05;19.10;;;9.60;;
15317;SDS011;7759;52.528;13.346;2023-02-11T06:48:32;21.97;;;10.47;;
15317;SDS011;7759;52.528;13.346;2023-02-11T06:51:04;13.10;;;7.20;;
15317;SDS011;7759;52.528;13.346;2023-02-11T06:53:33;27.57;;;12.53;;
15317;SDS011;7759;52.528;13.346;2023-02-11T06:56:06;18.67;;;9.80;;
15317;SDS011;7759;52.528;13.346;2023-02-11T06:58:33;14.40;;;7.43;;
15317;SDS011;7759;52.528;13.346;2023-02-11T07:00:59;26.20;;;12.53;;
15317;SDS011;7759;52.528;13.346;2023-02-11T07:03:24;23.43;;;9.83;;
15317;SDS011;7759;52.528;13.346;2023-02-11T07:05:50;14.63;;;7.73;;
15317;SDS011;7759;52.528;13.346;2023-02-11T07:08:16;31.50;;;14.23;;
15317;SDS011;7759;52.528;13.346;2023-02-11T07:10:42;19.30;;;10.33;;
15317;SDS011;7759;52.528;13.346;2023-02-11T07:13:08;17.27;;;7.60;;
15317;SDS011;7759;52.528;13.346;2023-02-11T07:15:35;17.80;;;10.10;;
15317;SDS011;7759;52.528;13.346;2023-02-11T07:18:02;14.53;;;8.20;;
15317;SDS011;7759;52.528;13.346;2023-02-11T07:20:28;25.07;;;10.97;;
15317;SDS011;7759;52.528;13.346;2023-02-11T07:22:53;18.03;;;9.23;;
15317;SDS011;7759;52.528;13.346;2023-02-11T07:25:19;17.90;;;9.13;;
15317;SDS011;7759;52.528;13.346;2023-02-11T07:27:45;20.77;;;10.53;;
15317;SDS011;7759;52.528;13.346;2023-02-11T07:30:11;22.77;;;11.33;;
15317;SDS011;7759;52.528;13.346;2023-02-11T07:32:37;20.47;;;10.67;;
15317;SDS011;7759;52.528;13.346;2023-02-11T07:35:03;14.30;;;8.83;;
15317;SDS011;7759;52.528;13.346;2023-02-11T07:37:29;28.10;;;13.10;;
15317;SDS011;7759;52.528;13.346;2023-02-11T07:39:57;25.87;;;12.63;;
15317;SDS011;7759;52.528;13.346;2023-02-11T07:42:23;21.90;;;10.70;;
15317;SDS011;7759;52.528;13.346;2023-02-11T07:44:49;22.03;;;10.90;;
15317;SDS011;7759;52.528;13.346;2023-02-11T07:47:15;27.07;;;14.10;;
15317;SDS011;7759;52.528;13.346;2023-02-11T07:49:41;29.70;;;14.43;;
15317;SDS011;7759;52.528;13.346;2023-02-11T07:52:07;19.30;;;10.60;;
15317;SDS011;7759;52.528;13.346;2023-02-11T07:54:33;16.40;;;9.13;;
15317;SDS011;7759;52.528;13.346;2023-02-11T07:56:58;25.93;;;12.00;;
15317;SDS011;7759;52.528;13.346;2023-02-11T07:59:24;25.47;;;12.53;;
15317;SDS011;7759;52.528;13.346;2023-02-11T08:01:51;20.50;;;8.60;;
15317;SDS011;7759;52.528;13.346;2023-02-11T08:04:17;22.63;;;10.63;;
15317;SDS011;7759;52.528;13.346;2023-02-11T08:06:43;29.60;;;13.97;;
15317;SDS011;7759;52.528;13.346;2023-02-11T08:09:11;32.30;;;15.20;;
15317;SDS011;7759;52.528;13.346;2023-02-11T08:11:39;17.43;;;8.70;;
15317;SDS011;7759;52.528;13.346;2023-02-11T08:14:04;25.20;;;13.07;;
15317;SDS011;7759;52.528;13.346;2023-02-11T08:16:31;23.03;;;11.23;;
15317;SDS011;7759;52.528;13.346;2023-02-11T08:18:59;40.67;;;17.90;;
15317;SDS011;7759;52.528;13.346;2023-02-11T08:21:25;21.53;;;10.20;;
15317;SDS011;7759;52.528;13.346;2023-02-11T08:23:52;27.70;;;12.67;;
15317;SDS011;7759;52.528;13.346;2023-02-11T08:26:19;22.30;;;11.07;;
15317;SDS011;7759;52.528;13.346;2023-02-11T08:28:46;28.47;;;12.27;;
15317;SDS011;7759;52.528;13.346;2023-02-11T08:31:16;26.10;;;10.77;;
15317;SDS011;7759;52.528;13.346;2023-02-11T08:33:43;26.73;;;13.40;;
15317;SDS011;7759;52.528;13.346;2023-02-11T08:36:16;23.53;;;10.83;;
15317;SDS011;7759;52.528;13.346;2023-02-11T08:38:42;19.80;;;11.60;;
15317;SDS011;7759;52.528;13.346;2023-02-11T08:41:08;20.67;;;10.00;;
15317;SDS011;7759;52.528;13.346;2023-02-11T08:43:35;19.53;;;10.07;;
15317;SDS011;7759;52.528;13.346;2023-02-11T08:46:01;17.50;;;8.83;;
15317;SDS011;7759;52.528;13.346;2023-02-11T08:48:27;33.87;;;14.73;;
15317;SDS011;7759;52.528;13.346;2023-02-11T08:50:54;22.07;;;10.90;;
15317;SDS011;7759;52.528;13.346;2023-02-11T08:53:20;24.87;;;11.33;;
15317;SDS011;7759;52.528;13.346;2023-02-11T08:55:49;23.33;;;10.70;;
15317;SDS011;7759;52.528;13.346;2023-02-11T08:58:15;21.07;;;11.20;;
15317;SDS011;7759;52.528;13.346;2023-02-11T09:00:41;18.73;;;9.73;;
15317;SDS011;7759;52.528;13.346;2023-02-11T09:03:09;22.67;;;9.40;;
15317;SDS011;7759;52.528;13.346;2023-02-11T09:05:39;17.40;;;8.67;;
15317;SDS011;7759;52.528;13.346;2023-02-11T09:08:05;20.10;;;10.03;;
15317;SDS011;7759;52.528;13.346;2023-02-11T09:10:30;23.43;;;10.00;;
15317;SDS011;7759;52.528;13.346;2023-02-11T09:12:56;26.67;;;12.77;;
15317;SDS011;7759;52.528;13.346;2023-02-11T09:15:22;21.17;;;10.07;;
15317;SDS011;7759;52.528;13.346;2023-02-11T09:17:48;20.70;;;11.10;;
15317;SDS011;7759;52.528;13.346;2023-02-11T09:20:14;24.30;;;11.53;;
15317;SDS011;7759;52.528;13.346;2023-02-11T09:22:40;25.47;;;12.53;;
15317;SDS011;7759;52.528;13.346;2023-02-11T09:25:06;27.97;;;13.50;;
15317;SDS011;7759;52.528;13.346;2023-02-11T09:27:32;29.30;;;13.70;;
15317;SDS011;7759;52.528;13.346;2023-02-11T09:29:58;24.93;;;11.50;;
15317;SDS011;7759;52.528;13.346;2023-02-11T09:32:24;21.53;;;9.73;;
15317;SDS011;7759;52.528;13.346;2023-02-11T09:34:51;24.00;;;12.80;;
15317;SDS011;7759;52.528;13.346;2023-02-11T09:37:17;29.97;;;15.47;;
15317;SDS011;7759;52.528;13.346;2023-02-11T09:39:42;18.93;;;9.67;;
15317;SDS011;7759;52.528;13.346;2023-02-11T09:42:23;19.40;;;8.60;;
15317;SDS011;7759;52.528;13.346;2023-02-11T09:44:56;23.47;;;12.13;;
15317;SDS011;7759;52.528;13.346;2023-02-11T09:47:25;27.70;;;13.23;;
15317;SDS011;7759;52.528;13.346;2023-02-11T09:49:55;23.90;;;11.23;;
15317;SDS011;7759;52.528;13.346;2023-02-11T09:54:59;23.60;;;11.13;;
15317;SDS011;7759;52.528;13.346;2023-02-11T09:57:33;23.30;;;10.67;;
15317;SDS011;7759;52.528;13.346;2023-02-11T10:00:00;26.83;;;12.97;;
15317;SDS011;7759;52.528;13.346;2023-02-11T10:02:32;17.97;;;9.20;;
15317;SDS011;7759;52.528;13.346;2023-02-11T10:05:24;13.47;;;8.23;;
15317;SDS011;7759;52.528;13.346;2023-02-11T10:08:08;28.43;;;12.00;;
15317;SDS011;7759;52.528;13.346;2023-02-11T10:10:46;22.77;;;11.20;;
15317;SDS011;7759;52.528;13.346;2023-02-11T10:13:27;24.87;;;12.30;;
15317;SDS011;7759;52.528;13.346;2023-02-11T10:15:58;19.13;;;10.03;;
15317;SDS011;7759;52.528;13.346;2023-02-11T10:18:32;14.27;;;7.57;;
15317;SDS011;7759;52.528;13.346;2023-02-11T10:23:36;16.60;;;8.83;;
15317;SDS011;7759;52.528;13.346;2023-02-11T10:26:07;22.70;;;11.80;;
15317;SDS011;7759;52.528;13.346;2023-02-11T10:28:35;24.00;;;11.93;;
15317;SDS011;7759;52.528;13.346;2023-02-11T10:31:23;23.77;;;11.43;;
15317;SDS011;7759;52.528;13.346;2023-02-11T10:33:52;13.90;;;7.57;;
15317;SDS011;7759;52.528;13.346;2023-02-11T10:36:19;13.93;;;7.50;;
15317;SDS011;7759;52.528;13.346;2023-02-11T10:38:47;12.17;;;7.10;;
15317;SDS011;7759;52.528;13.346;2023-02-11T10:41:16;18.33;;;9.37;;
15317;SDS011;7759;52.528;13.346;2023-02-11T10:43:42;12.13;;;7.07;;
15317;SDS011;7759;52.528;13.346;2023-02-11T10:46:15;26.27;;;12.27;;
15317;SDS011;7759;52.528;13.346;2023-02-11T10:48:46;18.63;;;9.80;;
15317;SDS011;7759;52.528;13.346;2023-02-11T10:51:16;20.53;;;8.43;;
15317;SDS011;7759;52.528;13.346;2023-02-11T10:53:42;21.93;;;10.17;;
15317;SDS011;7759;52.528;13.346;2023-02-11T10:56:13;19.20;;;10.37;;
15317;SDS011;7759;52.528;13.346;2023-02-11T10:58:45;21.27;;;10.80;;
15317;SDS011;7759;52.528;13.346;2023-02-11T11:01:12;25.47;;;11.67;;
15317;SDS011;7759;52.528;13.346;2023-02-11T11:03:45;17.20;;;8.70;;
15317;SDS011;7759;52.528;13.346;2023-02-11T11:06:11;18.83;;;9.93;;
15317;SDS011;7759;52.528;13.346;2023-02-11T11:11:04;11.67;;;6.70;;
15317;SDS011;7759;52.528;13.346;2023-02-11T11:13:35;20.23;;;10.57;;
15317;SDS011;7759;52.528;13.346;2023-02-11T11:16:09;19.20;;;8.60;;
15317;SDS011;7759;52.528;13.346;2023-02-11T11:18:39;14.93;;;8.73;;
15317;SDS011;7759;52.528;13.346;2023-02-11T11:21:11;19.50;;;8.53;;
15317;SDS011;7759;52.528;13.346;2023-02-11T11:23:38;14.33;;;7.30;;
15317;SDS011;7759;52.528;13.346;2023-02-11T11:26:06;14.60;;;7.30;;
15317;SDS011;7759;52.528;13.346;2023-02-11T11:31:11;15.63;;;8.40;;
15317;SDS011;7759;52.528;13.346;2023-02-11T11:33:37;16.67;;;7.73;;
15317;SDS011;7759;52.528;13.346;2023-02-11T11:36:10;24.90;;;10.37;;
15317;SDS011;7759;52.528;13.346;2023-02-11T11:38:42;20.43;;;9.90;;
15317;SDS011;7759;52.528;13.346;2023-02-11T11:41:19;21.23;;;9.37;;
15317;SDS011;7759;52.528;13.346;2023-02-11T11:43:56;28.13;;;11.40;;
15317;SDS011;7759;52.528;13.346;2023-02-11T11:46:23;17.57;;;9.00;;
15317;SDS011;7759;52.528;13.346;2023-02-11T11:48:49;14.77;;;7.97;;
15317;SDS011;7759;52.528;13.346;2023-02-11T11:51:16;15.63;;;8.00;;
15317;SDS011;7759;52.528;13.346;2023-02-11T11:53:49;20.27;;;10.37;;
15317;SDS011;7759;52.528;13.346;2023-02-11T11:56:20;21.10;;;10.13;;
15317;SDS011;7759;52.528;13.346;2023-02-11T11:58:47;18.73;;;9.80;;
15317;SDS011;7759;52.528;13.346;2023-02-11T12:03:58;22.77;;;10.33;;
15317;SDS011;7759;52.528;13.346;2023-02-11T12:06:49;11.90;;;6.43;;
15317;SDS011;7759;52.528;13.346;2023-02-11T12:09:30;17.13;;;8.70;;
15317;SDS011;7759;52.528;13.346;2023-02-11T12:12:05;15.30;;;7.73;;
15317;SDS011;7759;52.528;13.346;2023-02-11T12:14:40;14.60;;;7.60;;
15317;SDS011;7759;52.528;13.346;2023-02-11T12:20:03;16.63;;;7.73;;
15317;SDS011;7759;52.528;13.346;2023-02-11T12:22:52;14.37;;;7.90;;
15317;SDS011;7759;52.528;13.346;2023-02-11T12:25:24;18.50;;;7.73;;
15317;SDS011;7759;52.528;13.346;2023-02-11T12:28:07;17.63;;;7.40;;
15317;SDS011;7759;52.528;13.346;2023-02-11T12:30:48;18.93;;;9.27;;
15317;SDS011;7759;52.528;13.346;2023-02-11T12:33:36;14.60;;;7.17;;
15317;SDS011;7759;52.528;13.346;2023-02-11T12:36:13;13.23;;;7.33;;
15317;SDS011;7759;52.528;13.346;2023-02-11T12:44:26;9.47;;;5.40;;
15317;SDS011;7759;52.528;13.346;2023-02-11T12:47:01;14.67;;;7.07;;
15317;SDS011;7759;52.528;13.346;2023-02-11T12:49:40;10.87;;;6.43;;
15317;SDS011;7759;52.528;13.346;2023-02-11T12:52:18;12.50;;;5.57;;
15317;SDS011;7759;52.528;13.346;2023-02-11T12:54:59;11.47;;;6.30;;
15317;SDS011;7759;52.528;13.346;2023-02-11T12:57:30;15.87;;;8.53;;
15317;SDS011;7759;52.528;13.346;2023-02-11T13:05:24;15.43;;;6.10;;
15317;SDS011;7759;52.528;13.346;2023-02-11T13:07:51;7.87;;;4.63;;
15317;SDS011;7759;52.528;13.346;2023-02-11T13:12:56;10.77;;;5.50;;
15317;SDS011;7759;52.528;13.346;2023-02-11T13:15:41;5.73;;;3.40;;
15317;SDS011;7759;52.528;13.346;2023-02-11T13:18:12;7.83;;;4.37;;
15317;SDS011;7759;52.528;13.346;2023-02-11T13:23:22;8.30;;;4.83;;
15317;SDS011;7759;52.528;13.346;2023-02-11T13:28:22;6.67;;;4.10;;
15317;SDS011;7759;52.528;13.346;2023-02-11T13:30:50;15.47;;;6.90;;
15317;SDS011;7759;52.528;13.346;2023-02-11T13:33:29;10.13;;;5.80;;
15317;SDS011;7759;52.528;13.346;2023-02-11T13:38:25;12.37;;;5.13;;
15317;SDS011;7759;52.528;13.346;2023-02-11T13:41:05;11.83;;;5.47;;
15317;SDS011;7759;52.528;13.346;2023-02-11T13:43:32;15.13;;;5.83;;
15317;SDS011;7759;52.528;13.346;2023-02-11T13:46:06;12.67;;;6.70;;
15317;SDS011;7759;52.528;13.346;2023-02-11T13:48:35;11.23;;;5.80;;
15317;SDS011;7759;52.528;13.346;2023-02-11T13:51:02;7.93;;;4.37;;
15317;SDS011;7759;52.528;13.346;2023-02-11T13:53:30;10.83;;;5.40;;
15317;SDS011;7759;52.528;13.346;2023-02-11T13:56:10;8.80;;;4.73;;
15317;SDS011;7759;52.528;13.346;2023-02-11T13:58:45;6.40;;;3.70;;
15317;SDS011;7759;52.528;13.346;2023-02-11T14:01:15;7.27;;;4.87;;
15317;SDS011;7759;52.528;13.346;2023-02-11T14:07:20;6.00;;;3.87;;
15317;SDS011;7759;52.528;13.346;2023-02-11T14:13:05;7.57;;;4.77;;
15317;SDS011;7759;52.528;13.346;2023-02-11T14:15:44;6.53;;;3.93;;
15317;SDS011;7759;52.528;13.346;2023-02-11T14:20:59;6.73;;;3.67;;
15317;SDS011;7759;52.528;13.346;2023-02-11T14:23:27;9.00;;;4.47;;
15317;SDS011;7759;52.528;13.346;2023-02-11T14:25:56;8.03;;;4.43;;
15317;SDS011;7759;52.528;13.346;2023-02-11T14:28:23;7.40;;;4.07;;
15317;SDS011;7759;52.528;13.346;2023-02-11T14:31:02;10.87;;;6.43;;
15317;SDS011;7759;52.528;13.346;2023-02-11T14:33:39;9.07;;;5.40;;
15317;SDS011;7759;52.528;13.346;2023-02-11T14:36:13;7.43;;;4.67;;
15317;SDS011;7759;52.528;13.346;2023-02-11T14:39:00;7.37;;;4.73;;
15317;SDS011;7759;52.528;13.346;2023-02-11T14:41:48;5.47;;;4.10;;
15317;SDS011;7759;52.528;13.346;2023-02-11T14:44:16;9.37;;;5.47;;
15317;SDS011;7759;52.528;13.346;2023-02-11T14:46:44;10.30;;;5.03;;
15317;SDS011;7759;52.528;13.346;2023-02-11T14:49:13;10.80;;;4.60;;
15317;SDS011;7759;52.528;13.346;2023-02-11T14:51:42;6.63;;;4.17;;
15317;SDS011;7759;52.528;13.346;2023-02-11T14:54:10;10.27;;;6.63;;
15317;SDS011;7759;52.528;13.346;2023-02-11T14:56:39;9.60;;;5.83;;
15317;SDS011;7759;52.528;13.346;2023-02-11T14:59:16;8.20;;;4.57;;
15317;SDS011;7759;52.528;13.346;2023-02-11T15:01:44;11.33;;;6.30;;
15317;SDS011;7759;52.528;13.346;2023-02-11T15:06:55;5.77;;;3.57;;
15317;SDS011;7759;52.528;13.346;2023-02-11T15:09:27;8.53;;;4.50;;
15317;SDS011;7759;52.528;13.346;2023-02-11T15:11:56;4.80;;;3.53;;
15317;SDS011;7759;52.528;13.346;2023-02-11T15:14:29;5.53;;;3.33;;
15317;SDS011;7759;52.528;13.346;2023-02-11T15:16:57;4.43;;;3.30;;
15317;SDS011;7759;52.528;13.346;2023-02-11T15:19:25;9.07;;;5.55;;
15317;SDS011;7759;52.528;13.346;2023-02-11T15:21:53;6.37;;;4.07;;
15317;SDS011;7759;52.528;13.346;2023-02-11T15:24:25;7.90;;;5.07;;
15317;SDS011;7759;52.528;13.346;2023-02-11T15:26:59;8.80;;;4.20;;
15317;SDS011;7759;52.528;13.346;2023-02-11T15:29:26;6.77;;;3.90;;
15317;SDS011;7759;52.528;13.346;2023-02-11T15:34:48;7.63;;;3.60;;
15317;SDS011;7759;52.528;13.346;2023-02-11T15:37:21;4.07;;;3.30;;
15317;SDS011;7759;52.528;13.346;2023-02-11T15:39:48;8.13;;;4.93;;
15317;SDS011;7759;52.528;13.346;2023-02-11T15:42:27;6.70;;;3.50;;
15317;SDS011;7759;52.528;13.346;2023-02-11T15:47:38;3.97;;;2.80;;
15317;SDS011;7759;52.528;13.346;2023-02-11T15:50:04;5.30;;;3.17;;
15317;SDS011;7759;52.528;13.346;2023-02-11T15:52:30;3.13;;;2.30;;
15317;SDS011;7759;52.528;13.346;2023-02-11T15:54:57;3.70;;;2.67;;
15317;SDS011;7759;52.528;13.346;2023-02-11T15:57:25;7.73;;;3.13;;
15317;SDS011;7759;52.528;13.346;2023-02-11T15:59:52;2.80;;;2.20;;